sensor_id;sensor_type;location;lat;lon;timestamp;P1;durP1;ratioP1;P2;durP2;ratioP2
7613;SDS011;3848;42.016;23.098;2024-01-15T00:00:30;22.10;;;11.83;;
7613;SDS011;3848;42.016;23.098;2024-01-15T00:02:57;28.23;;;14.87;;
7613;SDS011;3848;42.016;23.098;2024-01-15T00:05:24;24.80;;;13.13;;
7613;SDS011;3848;42.016;23.098;2024-01-15T00:07:52;22.13;;;13.77;;
7613;SDS011;3848;42.016;23.098;2024-01-15T00:10:19;28.57;;;17.07;;
7613;SDS011;3848;42.016;23.098;2024-01-15T00:12:46;49.87;;;23.03;;
7613;SDS011;3848;42.016;23.098;2024-01-15T00:15:13;39.23;;;17.03;;
7613;SDS011;3848;42.016;23.098;2024-01-15T00:17:40;24.27;;;14.70;;
7613;SDS011;3848;42.016;23.098;2024-01-15T00:20:08;30.00;;;15.17;;
7613;SDS011;3848;42.016;23.098;2024-01-15T00:22:35;33.23;;;14.77;;
7613;SDS011;3848;42.016;23.098;2024-01-15T00:25:03;29.70;;;15.30;;
7613;SDS011;3848;42.016;23.098;2024-01-15T00:27:31;30.13;;;15.53;;
7613;SDS011;3848;42.016;23.098;2024-01-15T00:29:58;42.50;;;19.13;;
7613;SDS011;3848;42.016;23.098;2024-01-15T00:32:25;26.13;;;14.60;;
7613;SDS011;3848;42.016;23.098;2024-01-15T00:34:53;23.30;;;11.33;;
7613;SDS011;3848;42.016;23.098;2024-01-15T00:37:20;34.77;;;16.43;;
7613;SDS011;3848;42.016;23.098;2024-01-15T00:39:47;45.83;;;16.50;;
7613;SDS011;3848;42.016;23.098;2024-01-15T00:42:15;19.30;;;12.07;;
7613;SDS011;3848;42.016;23.098;2024-01-15T00:44:43;22.90;;;12.13;;
7613;SDS011;3848;42.016;23.098;2024-01-15T00:47:10;29.80;;;14.07;;
7613;SDS011;3848;42.016;23.098;2024-01-15T00:49:37;26.50;;;14.33;;
7613;SDS011;3848;42.016;23.098;2024-01-15T00:52:05;34.47;;;14.47;;
7613;SDS011;3848;42.016;23.098;2024-01-15T00:54:32;27.83;;;13.53;;
7613;SDS011;3848;42.016;23.098;2024-01-15T00:56:59;23.83;;;15.97;;
7613;SDS011;3848;42.016;23.098;2024-01-15T00:59:27;33.00;;;15.47;;
7613;SDS011;3848;42.016;23.098;2024-01-15T01:01:54;27.63;;;13.43;;
7613;SDS011;3848;42.016;23.098;2024-01-15T01:04:21;24.43;;;12.63;;
7613;SDS011;3848;42.016;23.098;2024-01-15T01:06:49;9.27;;;8.10;;
7613;SDS011;3848;42.016;23.098;2024-01-15T01:09:16;20.57;;;11.83;;
7613;SDS011;3848;42.016;23.098;2024-01-15T01:11:43;19.27;;;9.77;;
7613;SDS011;3848;42.016;23.098;2024-01-15T01:14:10;14.07;;;8.63;;
7613;SDS011;3848;42.016;23.098;2024-01-15T01:16:38;12.40;;;8.03;;
7613;SDS011;3848;42.016;23.098;2024-01-15T01:19:05;19.77;;;10.17;;
7613;SDS011;3848;42.016;23.098;2024-01-15T01:21:33;19.63;;;10.53;;
7613;SDS011;3848;42.016;23.098;2024-01-15T01:24:00;29.90;;;10.03;;
7613;SDS011;3848;42.016;23.098;2024-01-15T01:26:27;22.20;;;11.17;;
7613;SDS011;3848;42.016;23.098;2024-01-15T01:28:54;22.43;;;11.93;;
7613;SDS011;3848;42.016;23.098;2024-01-15T01:31:21;21.67;;;10.77;;
7613;SDS011;3848;42.016;23.098;2024-01-15T01:33:49;20.83;;;12.47;;
7613;SDS011;3848;42.016;23.098;2024-01-15T01:36:16;24.57;;;12.87;;
7613;SDS011;3848;42.016;23.098;2024-01-15T01:38:43;26.33;;;13.00;;
7613;SDS011;3848;42.016;23.098;2024-01-15T01:41:09;14.30;;;10.30;;
7613;SDS011;3848;42.016;23.098;2024-01-15T01:43:36;26.37;;;15.17;;
7613;SDS011;3848;42.016;23.098;2024-01-15T01:46:03;30.97;;;14.37;;
7613;SDS011;3848;42.016;23.098;2024-01-15T01:48:32;30.03;;;13.03;;
7613;SDS011;3848;42.016;23.098;2024-01-15T01:51:02;19.87;;;11.73;;
7613;SDS011;3848;42.016;23.098;2024-01-15T01:53:30;17.53;;;10.20;;
7613;SDS011;3848;42.016;23.098;2024-01-15T01:56:00;33.17;;;17.07;;
7613;SDS011;3848;42.016;23.098;2024-01-15T01:58:28;23.43;;;12.67;;
7613;SDS011;3848;42.016;23.098;2024-01-15T02:00:55;26.50;;;14.20;;
7613;SDS011;3848;42.016;23.098;2024-01-15T02:03:24;26.80;;;13.33;;
7613;SDS011;3848;42.016;23.098;2024-01-15T02:05:51;18.87;;;12.10;;
7613;SDS011;3848;42.016;23.098;2024-01-15T02:08:20;20.23;;;11.20;;
7613;SDS011;3848;42.016;23.098;2024-01-15T02:10:48;22.27;;;11.70;;
7613;SDS011;3848;42.016;23.098;2024-01-15T02:13:15;26.53;;;12.50;;
7613;SDS011;3848;42.016;23.098;2024-01-15T02:15:42;24.37;;;11.97;;
7613;SDS011;3848;42.016;23.098;2024-01-15T02:18:09;18.93;;;10.93;;
7613;SDS011;3848;42.016;23.098;2024-01-15T02:20:36;20.33;;;11.93;;
7613;SDS011;3848;42.016;23.098;2024-01-15T02:23:10;16.23;;;11.00;;
7613;SDS011;3848;42.016;23.098;2024-01-15T02:25:39;22.23;;;10.17;;
7613;SDS011;3848;42.016;23.098;2024-01-15T02:28:07;21.07;;;11.80;;
7613;SDS011;3848;42.016;23.098;2024-01-15T02:30:36;28.33;;;11.80;;
7613;SDS011;3848;42.016;23.098;2024-01-15T02:33:05;19.67;;;10.47;;
7613;SDS011;3848;42.016;23.098;2024-01-15T02:35:32;21.37;;;12.07;;
7613;SDS011;3848;42.016;23.098;2024-01-15T02:38:01;21.07;;;10.57;;
7613;SDS011;3848;42.016;23.098;2024-01-15T02:40:30;18.97;;;12.10;;
7613;SDS011;3848;42.016;23.098;2024-01-15T02:42:57;19.93;;;11.20;;
7613;SDS011;3848;42.016;23.098;2024-01-15T02:45:24;31.20;;;12.37;;
7613;SDS011;3848;42.016;23.098;2024-01-15T02:47:51;28.13;;;14.43;;
7613;SDS011;3848;42.016;23.098;2024-01-15T02:50:18;27.50;;;13.57;;
7613;SDS011;3848;42.016;23.098;2024-01-15T02:52:45;20.73;;;11.47;;
7613;SDS011;3848;42.016;23.098;2024-01-15T02:55:12;26.30;;;12.80;;
7613;SDS011;3848;42.016;23.098;2024-01-15T02:57:40;28.03;;;14.60;;
7613;SDS011;3848;42.016;23.098;2024-01-15T03:00:07;21.97;;;12.13;;
7613;SDS011;3848;42.016;23.098;2024-01-15T03:02:36;22.17;;;11.23;;
7613;SDS011;3848;42.016;23.098;2024-01-15T03:05:05;22.67;;;11.63;;
7613;SDS011;3848;42.016;23.098;2024-01-15T03:07:32;24.07;;;12.60;;
7613;SDS011;3848;42.016;23.098;2024-01-15T03:10:00;29.90;;;14.07;;
7613;SDS011;3848;42.016;23.098;2024-01-15T03:12:27;21.07;;;11.67;;
7613;SDS011;3848;42.016;23.098;2024-01-15T03:14:55;24.20;;;12.97;;
7613;SDS011;3848;42.016;23.098;2024-01-15T03:17:22;31.67;;;11.87;;
7613;SDS011;3848;42.016;23.098;2024-01-15T03:19:49;23.13;;;11.53;;
7613;SDS011;3848;42.016;23.098;2024-01-15T03:22:16;21.80;;;11.07;;
7613;SDS011;3848;42.016;23.098;2024-01-15T03:24:44;27.53;;;14.40;;
7613;SDS011;3848;42.016;23.098;2024-01-15T03:27:11;25.83;;;12.37;;
7613;SDS011;3848;42.016;23.098;2024-01-15T03:29:39;30.97;;;14.17;;
7613;SDS011;3848;42.016;23.098;2024-01-15T03:32:07;25.33;;;13.40;;
7613;SDS011;3848;42.016;23.098;2024-01-15T03:34:34;25.37;;;11.27;;
7613;SDS011;3848;42.016;23.098;2024-01-15T03:37:01;34.90;;;13.50;;
7613;SDS011;3848;42.016;23.098;2024-01-15T03:39:28;30.07;;;12.83;;
7613;SDS011;3848;42.016;23.098;2024-01-15T03:41:55;22.23;;;12.47;;
7613;SDS011;3848;42.016;23.098;2024-01-15T03:44:22;23.93;;;11.00;;
7613;SDS011;3848;42.016;23.098;2024-01-15T03:46:49;29.63;;;13.60;;
7613;SDS011;3848;42.016;23.098;2024-01-15T03:49:18;15.43;;;10.87;;
7613;SDS011;3848;42.016;23.098;2024-01-15T03:51:45;25.20;;;12.57;;
7613;SDS011;3848;42.016;23.098;2024-01-15T03:54:12;22.03;;;11.07;;
7613;SDS011;3848;42.016;23.098;2024-01-15T03:56:39;26.90;;;12.00;;
7613;SDS011;3848;42.016;23.098;2024-01-15T03:59:06;28.67;;;12.87;;
7613;SDS011;3848;42.016;23.098;2024-01-15T04:01:33;18.40;;;9.70;;
7613;SDS011;3848;42.016;23.098;2024-01-15T04:04:00;33.33;;;15.60;;
7613;SDS011;3848;42.016;23.098;2024-01-15T04:06:28;28.87;;;15.87;;
7613;SDS011;3848;42.016;23.098;2024-01-15T04:08:55;31.27;;;13.40;;
7613;SDS011;3848;42.016;23.098;2024-01-15T04:11:22;23.27;;;12.73;;
7613;SDS011;3848;42.016;23.098;2024-01-15T04:13:49;24.23;;;13.07;;
7613;SDS011;3848;42.016;23.098;2024-01-15T04:16:16;26.43;;;13.67;;
7613;SDS011;3848;42.016;23.098;2024-01-15T04:18:44;27.47;;;13.30;;
7613;SDS011;3848;42.016;23.098;2024-01-15T04:21:11;29.50;;;13.20;;
7613;SDS011;3848;42.016;23.098;2024-01-15T04:23:40;30.80;;;13.13;;
7613;SDS011;3848;42.016;23.098;2024-01-15T04:26:07;29.23;;;13.50;;
7613;SDS011;3848;42.016;23.098;2024-01-15T04:28:34;24.20;;;13.27;;
7613;SDS011;3848;42.016;23.098;2024-01-15T04:31:01;26.03;;;13.53;;
7613;SDS011;3848;42.016;23.098;2024-01-15T04:33:28;21.73;;;12.73;;
7613;SDS011;3848;42.016;23.098;2024-01-15T04:35:55;28.07;;;12.90;;
7613;SDS011;3848;42.016;23.098;2024-01-15T04:38:22;29.80;;;14.30;;
7613;SDS011;3848;42.016;23.098;2024-01-15T04:40:50;34.63;;;15.60;;
7613;SDS011;3848;42.016;23.098;2024-01-15T04:43:17;30.23;;;13.03;;
7613;SDS011;3848;42.016;23.098;2024-01-15T04:45:44;27.00;;;13.43;;
7613;SDS011;3848;42.016;23.098;2024-01-15T04:48:11;21.03;;;12.00;;
7613;SDS011;3848;42.016;23.098;2024-01-15T04:50:38;29.27;;;14.83;;
7613;SDS011;3848;42.016;23.098;2024-01-15T04:53:05;28.57;;;14.43;;
7613;SDS011;3848;42.016;23.098;2024-01-15T04:55:31;27.30;;;13.10;;
7613;SDS011;3848;42.016;23.098;2024-01-15T04:57:59;19.57;;;12.33;;
7613;SDS011;3848;42.016;23.098;2024-01-15T05:00:26;30.13;;;14.13;;
7613;SDS011;3848;42.016;23.098;2024-01-15T05:02:53;26.53;;;13.37;;
7613;SDS011;3848;42.016;23.098;2024-01-15T05:05:21;24.80;;;13.20;;
7613;SDS011;3848;42.016;23.098;2024-01-15T05:07:48;27.10;;;13.57;;
7613;SDS011;3848;42.016;23.098;2024-01-15T05:10:15;25.07;;;13.50;;
7613;SDS011;3848;42.016;23.098;2024-01-15T05:12:42;35.90;;;14.80;;
7613;SDS011;3848;42.016;23.098;2024-01-15T05:15:10;32.40;;;14.80;;
7613;SDS011;3848;42.016;23.098;2024-01-15T05:17:37;32.07;;;16.43;;
7613;SDS011;3848;42.016;23.098;2024-01-15T05:20:04;34.73;;;19.30;;
7613;SDS011;3848;42.016;23.098;2024-01-15T05:22:32;41.17;;;16.93;;
7613;SDS011;3848;42.016;23.098;2024-01-15T05:24:59;424.70;;;390.57;;
7613;SDS011;3848;42.016;23.098;2024-01-15T05:27:26;269.40;;;250.70;;
7613;SDS011;3848;42.016;23.098;2024-01-15T05:29:53;304.47;;;282.77;;
7613;SDS011;3848;42.016;23.098;2024-01-15T05:32:21;256.00;;;238.13;;
7613;SDS011;3848;42.016;23.098;2024-01-15T05:34:48;175.03;;;160.90;;
7613;SDS011;3848;42.016;23.098;2024-01-15T05:37:15;191.40;;;177.17;;
7613;SDS011;3848;42.016;23.098;2024-01-15T05:39:42;183.70;;;170.90;;
7613;SDS011;3848;42.016;23.098;2024-01-15T05:42:09;183.17;;;170.43;;
7613;SDS011;3848;42.016;23.098;2024-01-15T05:44:36;196.57;;;183.67;;
7613;SDS011;3848;42.016;23.098;2024-01-15T05:47:03;166.27;;;154.93;;
7613;SDS011;3848;42.016;23.098;2024-01-15T05:49:32;161.93;;;151.00;;
7613;SDS011;3848;42.016;23.098;2024-01-15T05:51:59;155.03;;;144.50;;
7613;SDS011;3848;42.016;23.098;2024-01-15T05:54:26;121.80;;;112.40;;
7613;SDS011;3848;42.016;23.098;2024-01-15T05:56:53;120.07;;;111.07;;
7613;SDS011;3848;42.016;23.098;2024-01-15T05:59:20;99.53;;;92.23;;
7613;SDS011;3848;42.016;23.098;2024-01-15T06:01:47;129.17;;;120.60;;
7613;SDS011;3848;42.016;23.098;2024-01-15T06:04:13;99.00;;;91.93;;
7613;SDS011;3848;42.016;23.098;2024-01-15T06:06:42;93.83;;;86.03;;
7613;SDS011;3848;42.016;23.098;2024-01-15T06:09:09;88.57;;;81.33;;
7613;SDS011;3848;42.016;23.098;2024-01-15T06:11:36;90.87;;;84.00;;
7613;SDS011;3848;42.016;23.098;2024-01-15T06:14:03;85.67;;;78.57;;
7613;SDS011;3848;42.016;23.098;2024-01-15T06:16:30;81.00;;;74.40;;
7613;SDS011;3848;42.016;23.098;2024-01-15T06:18:57;65.63;;;60.93;;
7613;SDS011;3848;42.016;23.098;2024-01-15T06:21:24;44.67;;;41.13;;
7613;SDS011;3848;42.016;23.098;2024-01-15T06:23:52;37.57;;;23.87;;
7613;SDS011;3848;42.016;23.098;2024-01-15T06:26:21;37.17;;;21.87;;
7613;SDS011;3848;42.016;23.098;2024-01-15T06:28:48;35.80;;;32.10;;
7613;SDS011;3848;42.016;23.098;2024-01-15T06:31:15;49.83;;;28.17;;
7613;SDS011;3848;42.016;23.098;2024-01-15T06:33:42;27.10;;;24.37;;
7613;SDS011;3848;42.016;23.098;2024-01-15T06:36:12;29.83;;;25.53;;
7613;SDS011;3848;42.016;23.098;2024-01-15T06:38:39;48.80;;;24.70;;
7613;SDS011;3848;42.016;23.098;2024-01-15T06:41:07;34.57;;;29.77;;
7613;SDS011;3848;42.016;23.098;2024-01-15T06:43:34;39.63;;;34.40;;
7613;SDS011;3848;42.016;23.098;2024-01-15T06:46:02;66.17;;;42.50;;
7613;SDS011;3848;42.016;23.098;2024-01-15T06:48:29;73.57;;;45.27;;
7613;SDS011;3848;42.016;23.098;2024-01-15T06:50:56;56.83;;;42.23;;
7613;SDS011;3848;42.016;23.098;2024-01-15T06:53:23;64.97;;;39.47;;
7613;SDS011;3848;42.016;23.098;2024-01-15T06:55:50;55.23;;;35.57;;
7613;SDS011;3848;42.016;23.098;2024-01-15T06:58:18;46.87;;;29.07;;
7613;SDS011;3848;42.016;23.098;2024-01-15T07:00:45;60.07;;;38.60;;
7613;SDS011;3848;42.016;23.098;2024-01-15T07:03:12;55.87;;;38.20;;
7613;SDS011;3848;42.016;23.098;2024-01-15T07:05:39;64.00;;;42.13;;
7613;SDS011;3848;42.016;23.098;2024-01-15T07:08:06;50.10;;;44.93;;
7613;SDS011;3848;42.016;23.098;2024-01-15T07:10:33;59.70;;;48.47;;
7613;SDS011;3848;42.016;23.098;2024-01-15T07:13:00;60.53;;;49.47;;
7613;SDS011;3848;42.016;23.098;2024-01-15T07:15:29;58.23;;;48.73;;
7613;SDS011;3848;42.016;23.098;2024-01-15T07:18:00;59.90;;;48.60;;
7613;SDS011;3848;42.016;23.098;2024-01-15T07:20:27;40.10;;;36.53;;
7613;SDS011;3848;42.016;23.098;2024-01-15T07:22:54;49.80;;;43.87;;
7613;SDS011;3848;42.016;23.098;2024-01-15T07:25:22;36.50;;;28.27;;
7613;SDS011;3848;42.016;23.098;2024-01-15T07:27:51;37.57;;;33.80;;
7613;SDS011;3848;42.016;23.098;2024-01-15T07:30:19;46.80;;;37.90;;
7613;SDS011;3848;42.016;23.098;2024-01-15T07:32:48;28.90;;;25.63;;
7613;SDS011;3848;42.016;23.098;2024-01-15T07:35:16;48.10;;;40.50;;
7613;SDS011;3848;42.016;23.098;2024-01-15T07:37:43;41.47;;;30.53;;
7613;SDS011;3848;42.016;23.098;2024-01-15T07:40:10;51.60;;;42.10;;
7613;SDS011;3848;42.016;23.098;2024-01-15T07:42:37;48.53;;;40.83;;
7613;SDS011;3848;42.016;23.098;2024-01-15T07:45:05;55.17;;;49.97;;
7613;SDS011;3848;42.016;23.098;2024-01-15T07:47:32;148.27;;;136.37;;
7613;SDS011;3848;42.016;23.098;2024-01-15T07:50:01;46.60;;;22.33;;
7613;SDS011;3848;42.016;23.098;2024-01-15T07:52:28;74.40;;;45.57;;
7613;SDS011;3848;42.016;23.098;2024-01-15T07:54:56;73.60;;;66.23;;
7613;SDS011;3848;42.016;23.098;2024-01-15T07:57:24;91.87;;;84.20;;
7613;SDS011;3848;42.016;23.098;2024-01-15T07:59:51;97.10;;;88.97;;
7613;SDS011;3848;42.016;23.098;2024-01-15T08:02:18;69.07;;;62.33;;
7613;SDS011;3848;42.016;23.098;2024-01-15T08:04:45;112.87;;;103.40;;
7613;SDS011;3848;42.016;23.098;2024-01-15T08:07:14;111.97;;;102.50;;
7613;SDS011;3848;42.016;23.098;2024-01-15T08:09:41;76.80;;;38.17;;
7613;SDS011;3848;42.016;23.098;2024-01-15T08:12:07;112.60;;;103.83;;
7613;SDS011;3848;42.016;23.098;2024-01-15T08:14:35;103.93;;;94.73;;
7613;SDS011;3848;42.016;23.098;2024-01-15T08:17:02;81.37;;;72.63;;
7613;SDS011;3848;42.016;23.098;2024-01-15T08:19:29;86.23;;;72.10;;
7613;SDS011;3848;42.016;23.098;2024-01-15T08:21:56;78.23;;;71.47;;
7613;SDS011;3848;42.016;23.098;2024-01-15T08:24:25;92.30;;;84.13;;
7613;SDS011;3848;42.016;23.098;2024-01-15T08:26:52;112.77;;;104.73;;
7613;SDS011;3848;42.016;23.098;2024-01-15T08:29:19;97.50;;;90.33;;
7613;SDS011;3848;42.016;23.098;2024-01-15T08:31:46;70.73;;;55.60;;
7613;SDS011;3848;42.016;23.098;2024-01-15T08:34:13;72.43;;;66.50;;
7613;SDS011;3848;42.016;23.098;2024-01-15T08:36:40;75.63;;;68.20;;
7613;SDS011;3848;42.016;23.098;2024-01-15T08:39:07;93.43;;;85.40;;
7613;SDS011;3848;42.016;23.098;2024-01-15T08:41:36;73.87;;;66.43;;
7613;SDS011;3848;42.016;23.098;2024-01-15T08:44:03;89.93;;;62.00;;
7613;SDS011;3848;42.016;23.098;2024-01-15T08:46:30;104.27;;;96.07;;
7613;SDS011;3848;42.016;23.098;2024-01-15T08:48:57;74.83;;;68.47;;
7613;SDS011;3848;42.016;23.098;2024-01-15T08:51:24;62.17;;;56.10;;
7613;SDS011;3848;42.016;23.098;2024-01-15T08:53:51;77.67;;;70.87;;
7613;SDS011;3848;42.016;23.098;2024-01-15T08:56:18;86.17;;;78.73;;
7613;SDS011;3848;42.016;23.098;2024-01-15T08:58:47;55.63;;;50.50;;
7613;SDS011;3848;42.016;23.098;2024-01-15T09:01:14;59.80;;;48.77;;
7613;SDS011;3848;42.016;23.098;2024-01-15T09:03:41;67.80;;;60.23;;
7613;SDS011;3848;42.016;23.098;2024-01-15T09:06:08;55.73;;;51.13;;
7613;SDS011;3848;42.016;23.098;2024-01-15T09:08:35;61.37;;;56.13;;
7613;SDS011;3848;42.016;23.098;2024-01-15T09:11:02;78.90;;;72.87;;
7613;SDS011;3848;42.016;23.098;2024-01-15T09:13:30;74.53;;;68.47;;
7613;SDS011;3848;42.016;23.098;2024-01-15T09:15:58;105.83;;;97.30;;
7613;SDS011;3848;42.016;23.098;2024-01-15T09:18:26;64.93;;;58.93;;
7613;SDS011;3848;42.016;23.098;2024-01-15T09:20:53;42.17;;;38.00;;
7613;SDS011;3848;42.016;23.098;2024-01-15T09:23:20;61.10;;;54.83;;
7613;SDS011;3848;42.016;23.098;2024-01-15T09:25:47;63.47;;;57.80;;
7613;SDS011;3848;42.016;23.098;2024-01-15T09:28:15;61.63;;;55.63;;
7613;SDS011;3848;42.016;23.098;2024-01-15T09:30:42;65.80;;;60.47;;
7613;SDS011;3848;42.016;23.098;2024-01-15T09:33:11;61.80;;;56.57;;
7613;SDS011;3848;42.016;23.098;2024-01-15T09:35:38;96.13;;;89.13;;
7613;SDS011;3848;42.016;23.098;2024-01-15T09:38:05;69.23;;;63.77;;
7613;SDS011;3848;42.016;23.098;2024-01-15T09:40:32;118.73;;;110.03;;
7613;SDS011;3848;42.016;23.098;2024-01-15T09:43:00;86.63;;;80.43;;
7613;SDS011;3848;42.016;23.098;2024-01-15T09:45:28;69.93;;;64.60;;
7613;SDS011;3848;42.016;23.098;2024-01-15T09:47:55;79.00;;;72.67;;
7613;SDS011;3848;42.016;23.098;2024-01-15T09:50:24;79.77;;;72.70;;
7613;SDS011;3848;42.016;23.098;2024-01-15T09:52:51;79.10;;;69.13;;
7613;SDS011;3848;42.016;23.098;2024-01-15T09:55:19;96.93;;;89.73;;
7613;SDS011;3848;42.016;23.098;2024-01-15T09:57:47;143.87;;;134.93;;
7613;SDS011;3848;42.016;23.098;2024-01-15T10:00:14;71.70;;;66.10;;
7613;SDS011;3848;42.016;23.098;2024-01-15T10:02:43;70.30;;;64.20;;
7613;SDS011;3848;42.016;23.098;2024-01-15T10:05:10;80.07;;;71.97;;
7613;SDS011;3848;42.016;23.098;2024-01-15T10:07:39;38.97;;;15.10;;
7613;SDS011;3848;42.016;23.098;2024-01-15T10:10:06;35.17;;;16.87;;
7613;SDS011;3848;42.016;23.098;2024-01-15T10:12:34;48.20;;;38.80;;
7613;SDS011;3848;42.016;23.098;2024-01-15T10:15:02;103.90;;;94.73;;
7613;SDS011;3848;42.016;23.098;2024-01-15T10:17:29;165.83;;;154.43;;
7613;SDS011;3848;42.016;23.098;2024-01-15T10:19:57;89.17;;;80.77;;
7613;SDS011;3848;42.016;23.098;2024-01-15T10:22:24;115.50;;;105.80;;
7613;SDS011;3848;42.016;23.098;2024-01-15T10:24:53;51.03;;;42.73;;
7613;SDS011;3848;42.016;23.098;2024-01-15T10:27:20;63.30;;;57.07;;
7613;SDS011;3848;42.016;23.098;2024-01-15T10:29:47;67.57;;;61.77;;
7613;SDS011;3848;42.016;23.098;2024-01-15T10:32:14;65.63;;;59.07;;
7613;SDS011;3848;42.016;23.098;2024-01-15T10:34:41;41.83;;;33.07;;
7613;SDS011;3848;42.016;23.098;2024-01-15T10:37:09;236.50;;;217.03;;
7613;SDS011;3848;42.016;23.098;2024-01-15T10:39:55;49.83;;;34.53;;
7613;SDS011;3848;42.016;23.098;2024-01-15T10:42:22;84.87;;;64.03;;
7613;SDS011;3848;42.016;23.098;2024-01-15T10:44:49;83.80;;;59.37;;
7613;SDS011;3848;42.016;23.098;2024-01-15T10:47:16;45.03;;;36.40;;
7613;SDS011;3848;42.016;23.098;2024-01-15T10:49:44;88.60;;;74.07;;
7613;SDS011;3848;42.016;23.098;2024-01-15T10:52:12;101.57;;;91.30;;
7613;SDS011;3848;42.016;23.098;2024-01-15T10:54:40;323.23;;;297.93;;
7613;SDS011;3848;42.016;23.098;2024-01-15T10:57:11;87.63;;;51.20;;
7613;SDS011;3848;42.016;23.098;2024-01-15T10:59:38;53.57;;;28.27;;
7613;SDS011;3848;42.016;23.098;2024-01-15T11:02:05;105.97;;;67.70;;
7613;SDS011;3848;42.016;23.098;2024-01-15T11:04:33;60.27;;;53.37;;
7613;SDS011;3848;42.016;23.098;2024-01-15T11:07:01;102.73;;;65.57;;
7613;SDS011;3848;42.016;23.098;2024-01-15T11:09:29;64.73;;;30.73;;
7613;SDS011;3848;42.016;23.098;2024-01-15T11:12:06;132.50;;;119.37;;
7613;SDS011;3848;42.016;23.098;2024-01-15T11:14:38;91.70;;;71.13;;
7613;SDS011;3848;42.016;23.098;2024-01-15T11:17:06;65.10;;;44.27;;
7613;SDS011;3848;42.016;23.098;2024-01-15T11:19:36;44.90;;;24.30;;
7613;SDS011;3848;42.016;23.098;2024-01-15T11:22:05;34.00;;;18.70;;
7613;SDS011;3848;42.016;23.098;2024-01-15T11:24:34;99.07;;;88.87;;
7613;SDS011;3848;42.016;23.098;2024-01-15T11:27:03;94.83;;;60.70;;
7613;SDS011;3848;42.016;23.098;2024-01-15T11:29:31;98.67;;;75.93;;
7613;SDS011;3848;42.016;23.098;2024-01-15T11:32:02;90.00;;;66.47;;
7613;SDS011;3848;42.016;23.098;2024-01-15T11:37:19;98.27;;;59.93;;
7613;SDS011;3848;42.016;23.098;2024-01-15T11:39:50;98.67;;;60.17;;
7613;SDS011;3848;42.016;23.098;2024-01-15T11:42:19;41.00;;;21.27;;
7613;SDS011;3848;42.016;23.098;2024-01-15T11:44:47;31.10;;;18.03;;
7613;SDS011;3848;42.016;23.098;2024-01-15T11:47:15;58.37;;;34.03;;
7613;SDS011;3848;42.016;23.098;2024-01-15T11:50:00;98.53;;;52.20;;
7613;SDS011;3848;42.016;23.098;2024-01-15T11:52:35;91.20;;;56.87;;
7613;SDS011;3848;42.016;23.098;2024-01-15T11:55:11;110.20;;;53.13;;
7613;SDS011;3848;42.016;23.098;2024-01-15T11:57:41;78.00;;;42.10;;
7613;SDS011;3848;42.016;23.098;2024-01-15T12:00:11;96.83;;;51.23;;
7613;SDS011;3848;42.016;23.098;2024-01-15T12:02:41;73.73;;;33.40;;
7613;SDS011;3848;42.016;23.098;2024-01-15T12:05:09;37.80;;;21.53;;
7613;SDS011;3848;42.016;23.098;2024-01-15T12:07:38;90.97;;;43.43;;
7613;SDS011;3848;42.016;23.098;2024-01-15T12:10:08;44.43;;;25.03;;
7613;SDS011;3848;42.016;23.098;2024-01-15T12:12:42;86.13;;;41.80;;
7613;SDS011;3848;42.016;23.098;2024-01-15T12:15:17;75.47;;;38.13;;
7613;SDS011;3848;42.016;23.098;2024-01-15T12:17:46;88.13;;;39.90;;
7613;SDS011;3848;42.016;23.098;2024-01-15T12:20:13;74.93;;;37.73;;
7613;SDS011;3848;42.016;23.098;2024-01-15T12:22:41;89.10;;;40.90;;
7613;SDS011;3848;42.016;23.098;2024-01-15T12:25:09;76.97;;;39.23;;
7613;SDS011;3848;42.016;23.098;2024-01-15T12:27:36;84.93;;;49.80;;
7613;SDS011;3848;42.016;23.098;2024-01-15T12:30:04;85.53;;;38.93;;
7613;SDS011;3848;42.016;23.098;2024-01-15T12:32:32;92.37;;;39.03;;
7613;SDS011;3848;42.016;23.098;2024-01-15T12:35:02;76.67;;;42.10;;
7613;SDS011;3848;42.016;23.098;2024-01-15T12:37:30;24.03;;;15.40;;
7613;SDS011;3848;42.016;23.098;2024-01-15T12:39:58;27.73;;;15.87;;
7613;SDS011;3848;42.016;23.098;2024-01-15T12:42:25;19.03;;;10.57;;
7613;SDS011;3848;42.016;23.098;2024-01-15T12:44:56;16.93;;;10.83;;
7613;SDS011;3848;42.016;23.098;2024-01-15T12:47:23;14.43;;;10.00;;
7613;SDS011;3848;42.016;23.098;2024-01-15T12:49:51;15.63;;;9.40;;
7613;SDS011;3848;42.016;23.098;2024-01-15T12:52:21;10.27;;;8.47;;
7613;SDS011;3848;42.016;23.098;2024-01-15T12:54:48;20.05;;;13.35;;
7613;SDS011;3848;42.016;23.098;2024-01-15T12:57:15;15.83;;;11.57;;
7613;SDS011;3848;42.016;23.098;2024-01-15T12:59:43;17.10;;;13.27;;
7613;SDS011;3848;42.016;23.098;2024-01-15T13:02:10;18.53;;;14.33;;
7613;SDS011;3848;42.016;23.098;2024-01-15T13:04:38;15.73;;;9.50;;
7613;SDS011;3848;42.016;23.098;2024-01-15T13:07:05;74.00;;;30.73;;
7613;SDS011;3848;42.016;23.098;2024-01-15T13:09:34;68.27;;;27.83;;
7613;SDS011;3848;42.016;23.098;2024-01-15T13:12:01;143.43;;;57.70;;
7613;SDS011;3848;42.016;23.098;2024-01-15T13:14:29;17.67;;;11.03;;
7613;SDS011;3848;42.016;23.098;2024-01-15T13:16:56;170.63;;;83.00;;
7613;SDS011;3848;42.016;23.098;2024-01-15T13:19:23;19.77;;;9.47;;
7613;SDS011;3848;42.016;23.098;2024-01-15T13:21:51;109.27;;;53.30;;
7613;SDS011;3848;42.016;23.098;2024-01-15T13:24:18;21.13;;;12.40;;
7613;SDS011;3848;42.016;23.098;2024-01-15T13:26:47;20.03;;;10.83;;
7613;SDS011;3848;42.016;23.098;2024-01-15T13:29:14;13.20;;;7.93;;
7613;SDS011;3848;42.016;23.098;2024-01-15T13:31:41;9.53;;;7.43;;
7613;SDS011;3848;42.016;23.098;2024-01-15T13:34:11;10.00;;;8.67;;
7613;SDS011;3848;42.016;23.098;2024-01-15T13:36:47;6.50;;;4.67;;
7613;SDS011;3848;42.016;23.098;2024-01-15T13:39:15;12.17;;;5.80;;
7613;SDS011;3848;42.016;23.098;2024-01-15T13:41:46;9.67;;;6.30;;
7613;SDS011;3848;42.016;23.098;2024-01-15T13:44:13;8.07;;;4.80;;
7613;SDS011;3848;42.016;23.098;2024-01-15T13:46:41;5.57;;;4.27;;
7613;SDS011;3848;42.016;23.098;2024-01-15T13:49:12;6.60;;;4.70;;
7613;SDS011;3848;42.016;23.098;2024-01-15T13:51:39;10.47;;;4.50;;
7613;SDS011;3848;42.016;23.098;2024-01-15T13:54:06;12.87;;;6.83;;
7613;SDS011;3848;42.016;23.098;2024-01-15T13:56:34;9.40;;;8.33;;
7613;SDS011;3848;42.016;23.098;2024-01-15T13:59:10;12.40;;;7.63;;
7613;SDS011;3848;42.016;23.098;2024-01-15T14:01:48;7.40;;;5.10;;
7613;SDS011;3848;42.016;23.098;2024-01-15T14:04:15;24.13;;;22.03;;
7613;SDS011;3848;42.016;23.098;2024-01-15T14:06:42;17.73;;;7.70;;
7613;SDS011;3848;42.016;23.098;2024-01-15T14:09:09;7.03;;;5.87;;
7613;SDS011;3848;42.016;23.098;2024-01-15T14:11:39;9.53;;;5.37;;
7613;SDS011;3848;42.016;23.098;2024-01-15T14:14:06;5.27;;;4.50;;
7613;SDS011;3848;42.016;23.098;2024-01-15T14:16:35;7.10;;;5.97;;
7613;SDS011;3848;42.016;23.098;2024-01-15T14:19:03;10.20;;;4.80;;
7613;SDS011;3848;42.016;23.098;2024-01-15T14:21:31;7.30;;;5.17;;
7613;SDS011;3848;42.016;23.098;2024-01-15T14:23:58;8.17;;;6.07;;
7613;SDS011;3848;42.016;23.098;2024-01-15T14:26:25;9.13;;;3.70;;
7613;SDS011;3848;42.016;23.098;2024-01-15T14:28:53;6.50;;;3.97;;
7613;SDS011;3848;42.016;23.098;2024-01-15T14:31:20;5.30;;;3.90;;
7613;SDS011;3848;42.016;23.098;2024-01-15T14:33:48;8.10;;;4.83;;
7613;SDS011;3848;42.016;23.098;2024-01-15T14:36:16;6.53;;;4.43;;
7613;SDS011;3848;42.016;23.098;2024-01-15T14:38:43;7.17;;;4.77;;